Time;durP1;ratioP1;P1;durP2;ratioP2;P2;SDS_P1;SDS_P2;PMS_P1;PMS_P2;Temp;Humidity;BMP_temperature;BMP_pressure;BME280_temperature;BME280_humidity;BME280_pressure;Samples;Min_cycle;Max_cycle;Signal;HPM_P1;HPM_P2
2023/04/22 00:00:15;;;;;;;11.70;6.70;;;;;;;12.77;43.75;100284.78;5010769;28;20199;-60
2023/04/22 00:02:44;;;;;;;8.17;5.60;;;;;;;12.74;43.85;100282.28;5005217;28;20247;-59
2023/04/22 00:05:13;;;;;;;8.47;5.80;;;;;;;12.75;43.83;100278.81;5012460;28;20669;-61
2023/04/22 00:07:45;;;;;;;9.37;6.00;;;;;;;12.71;44.04;100278.91;5009574;28;20211;-63
2023/04/22 00:10:14;;;;;;;10.63;6.03;;;;;;;12.63;44.30;100283.31;5011329;28;20211;-59
2023/04/22 00:12:42;;;;;;;7.20;5.57;;;;;;;12.56;44.38;100280.00;5011331;28;20214;-59
2023/04/22 00:15:10;;;;;;;9.23;5.33;;;;;;;12.52;44.67;100271.44;5012218;28;20674;-62
2023/04/22 00:17:38;;;;;;;8.80;5.70;;;;;;;12.49;44.58;100266.31;5011282;28;20639;-61
2023/04/22 00:20:09;;;;;;;11.33;5.77;;;;;;;12.43;44.55;100276.75;5011382;28;20695;-60
2023/04/22 00:22:37;;;;;;;10.83;6.17;;;;;;;12.41;44.68;100269.88;4969928;28;1148887;-60
2023/04/22 00:25:06;;;;;;;9.53;5.43;;;;;;;12.43;44.72;100271.56;5012702;28;20257;-64
2023/04/22 00:27:35;;;;;;;9.43;5.47;;;;;;;12.42;44.81;100269.88;5010760;28;20613;-63
2023/04/22 00:30:04;;;;;;;8.77;5.90;;;;;;;12.41;44.63;100272.47;5011377;28;20565;-59
2023/04/22 00:32:32;;;;;;;6.43;5.17;;;;;;;12.40;44.92;100270.75;5013156;28;20281;-60
2023/04/22 00:35:00;;;;;;;18.47;5.97;;;;;;;12.38;44.84;100273.38;5011937;28;20203;-59
2023/04/22 00:37:28;;;;;;;9.43;5.40;;;;;;;12.33;44.99;100268.28;5012642;28;20297;-59
2023/04/22 00:39:56;;;;;;;9.27;6.40;;;;;;;12.26;45.09;100268.38;5012099;28;20591;-62
2023/04/22 00:42:26;;;;;;;10.23;6.33;;;;;;;12.21;45.22;100262.44;5009557;28;20203;-60
2023/04/22 00:44:55;;;;;;;8.43;5.50;;;;;;;12.14;45.42;100266.00;5012748;28;20572;-59
2023/04/22 00:47:25;;;;;;;10.70;5.93;;;;;;;12.11;45.67;100269.47;5012401;28;20254;-60
2023/04/22 00:49:54;;;;;;;8.13;5.30;;;;;;;12.09;45.57;100266.06;5012432;28;20203;-62
2023/04/22 00:52:22;;;;;;;9.53;6.07;;;;;;;12.08;45.59;100265.22;5009396;28;20282;-64
2023/04/22 00:54:51;;;;;;;9.20;5.63;;;;;;;12.03;45.95;100271.31;5012628;28;20203;-62
2023/04/22 00:57:19;;;;;;;8.50;6.10;;;;;;;11.99;45.99;100273.06;5009630;28;20659;-64
2023/04/22 00:59:48;;;;;;;8.20;5.60;;;;;;;11.96;46.43;100262.78;5011466;28;20258;-62
2023/04/22 01:02:17;;;;;;;7.23;5.50;;;;;;;11.94;46.27;100261.13;5011419;28;20504;-63
2023/04/22 01:04:46;;;;;;;7.07;5.53;;;;;;;11.89;46.56;100258.56;5010328;28;20658;-63
2023/04/22 01:07:14;;;;;;;9.13;5.87;;;;;;;11.83;46.56;100261.22;5011800;28;20198;-62
2023/04/22 01:09:43;;;;;;;9.23;5.90;;;;;;;11.78;46.95;100255.25;5008656;28;20754;-64
2023/04/22 01:12:11;;;;;;;9.47;6.00;;;;;;;11.73;47.15;100251.88;5010214;28;20619;-64
2023/04/22 01:14:39;;;;;;;11.03;6.27;;;;;;;11.73;46.95;100259.63;5011061;28;20243;-63
2023/04/22 01:17:09;;;;;;;6.80;5.23;;;;;;;11.69;47.22;100252.81;5011612;28;20651;-63
2023/04/22 01:19:38;;;;;;;10.73;6.40;;;;;;;11.65;47.12;100257.16;5011361;28;20203;-64
2023/04/22 01:22:07;;;;;;;8.67;5.60;;;;;;;11.59;47.59;100255.47;4998100;28;20287;-65
2023/04/22 01:24:37;;;;;;;11.07;6.30;;;;;;;11.56;47.51;100259.81;5011681;28;20285;-63
2023/04/22 01:27:05;;;;;;;10.67;5.83;;;;;;;11.58;47.87;100253.78;5007580;28;20230;-63
2023/04/22 01:29:33;;;;;;;7.63;5.80;;;;;;;11.63;47.46;100263.19;5009814;28;20670;-63
2023/04/22 01:32:01;;;;;;;8.27;5.80;;;;;;;11.63;47.16;100256.28;5011643;28;20747;-63
2023/04/22 01:34:30;;;;;;;7.57;6.40;;;;;;;11.64;47.66;100262.34;5010848;28;20253;-63
2023/04/22 01:36:58;;;;;;;8.80;5.90;;;;;;;11.63;47.39;100261.47;5010885;28;20215;-65
2023/04/22 01:39:26;;;;;;;9.47;5.63;;;;;;;11.61;47.66;100265.81;5009206;28;20214;-63
2023/04/22 01:41:57;;;;;;;8.37;5.63;;;;;;;11.61;47.21;100269.22;5010001;28;20286;-63
2023/04/22 01:44:25;;;;;;;9.00;5.73;;;;;;;11.59;47.35;100264.94;5011393;28;20207;-62
2023/04/22 01:46:53;;;;;;;9.07;6.03;;;;;;;11.51;47.91;100264.19;5008348;28;20634;-63
2023/04/22 01:49:21;;;;;;;11.10;5.73;;;;;;;11.47;47.31;100260.81;5009686;28;20199;-63
2023/04/22 01:51:49;;;;;;;8.93;5.50;;;;;;;11.43;47.46;100263.44;5010293;28;20239;-67
2023/04/22 01:54:17;;;;;;;7.60;5.87;;;;;;;11.41;47.64;100262.59;5009003;28;20200;-63
2023/04/22 01:56:51;;;;;;;9.40;6.13;;;;;;;11.42;47.90;100257.44;5009463;28;20207;-63
2023/04/22 01:59:21;;;;;;;9.77;5.70;;;;;;;11.45;47.61;100259.09;5009652;28;20227;-62
2023/04/22 02:01:48;;;;;;;11.33;5.30;;;;;;;11.41;48.03;100255.69;5011634;28;20266;-62
2023/04/22 02:04:17;;;;;;;7.53;5.60;;;;;;;11.37;48.28;100249.72;5009943;28;20651;-63
2023/04/22 02:06:44;;;;;;;8.63;5.73;;;;;;;11.34;47.73;100254.94;5010544;28;20204;-64
2023/04/22 02:09:12;;;;;;;7.63;5.43;;;;;;;11.30;48.39;100252.38;5008766;28;20728;-66
2023/04/22 02:11:40;;;;;;;8.43;5.20;;;;;;;11.30;48.39;100258.44;5008802;28;20211;-65
2023/04/22 02:14:08;;;;;;;7.40;5.90;;;;;;;11.30;48.32;100249.81;5010934;28;20245;-63
2023/04/22 02:16:37;;;;;;;7.77;4.93;;;;;;;11.27;48.14;100252.44;5008875;28;20231;-65
2023/04/22 02:19:05;;;;;;;7.53;4.93;;;;;;;11.21;48.22;100249.94;5010767;28;20207;-63
2023/04/22 02:21:34;;;;;;;7.40;5.30;;;;;;;11.13;48.60;100250.88;5008566;28;20206;-64
2023/04/22 02:24:02;;;;;;;9.50;5.37;;;;;;;11.10;48.68;100250.03;5008705;28;20321;-65
2023/04/22 02:26:30;;;;;;;9.80;5.53;;;;;;;11.06;49.06;100245.78;5011005;28;20662;-67
2023/04/22 02:28:58;;;;;;;7.43;5.27;;;;;;;11.05;48.95;100247.50;5011133;28;20266;-62
2023/04/22 02:31:25;;;;;;;7.33;5.23;;;;;;;11.08;48.65;100247.50;5009215;28;20549;-62
2023/04/22 02:33:55;;;;;;;8.63;5.03;;;;;;;11.09;49.52;100241.44;5010578;28;20252;-63
2023/04/22 02:36:23;;;;;;;11.80;5.97;;;;;;;11.11;49.58;100246.59;5010754;28;20239;-62
2023/04/22 02:38:51;;;;;;;7.87;5.27;;;;;;;11.08;49.27;100242.34;5008055;28;22516;-62
2023/04/22 02:41:18;;;;;;;11.27;5.90;;;;;;;11.07;49.36;100240.59;5007723;28;20643;-63
2023/04/22 02:43:46;;;;;;;7.57;5.33;;;;;;;11.01;49.27;100243.25;5009987;28;20211;-66
2023/04/22 02:46:15;;;;;;;7.90;5.40;;;;;;;10.93;49.42;100234.72;5009281;28;20195;-63
2023/04/22 02:48:44;;;;;;;9.63;5.60;;;;;;;10.87;49.48;100243.38;5008785;28;20213;-64
2023/04/22 02:51:13;;;;;;;8.13;4.73;;;;;;;10.78;50.17;100243.47;5009071;28;20207;-64
2023/04/22 02:53:41;;;;;;;10.57;5.47;;;;;;;10.75;49.57;100238.38;5010782;28;20566;-63
2023/04/22 02:56:09;;;;;;;8.97;5.27;;;;;;;10.74;49.76;100240.94;5008017;28;20203;-64
2023/04/22 02:58:37;;;;;;;8.20;5.40;;;;;;;10.72;49.32;100234.97;5009308;28;20651;-63
2023/04/22 03:01:05;;;;;;;7.13;5.17;;;;;;;10.67;50.16;100242.72;5010764;28;20250;-62
2023/04/22 03:03:34;;;;;;;9.70;5.67;;;;;;;10.63;50.02;100233.28;5010762;28;20628;-65
2023/04/22 03:06:02;;;;;;;7.67;5.33;;;;;;;10.60;50.09;100241.94;5010342;28;20211;-64
2023/04/22 03:08:31;;;;;;;7.50;5.30;;;;;;;10.59;50.73;100242.78;5009278;28;20200;-63
2023/04/22 03:10:59;;;;;;;8.00;5.67;;;;;;;10.54;50.31;100239.41;5009919;28;20200;-65
2023/04/22 03:13:27;;;;;;;7.53;5.80;;;;;;;10.48;51.11;100244.59;5006457;28;20215;-63
2023/04/22 03:15:55;;;;;;;8.33;5.37;;;;;;;10.42;50.43;100243.78;5010574;28;20257;-63
2023/04/22 03:18:23;;;;;;;9.87;5.60;;;;;;;10.37;51.09;100246.38;5011313;28;20243;-64
2023/04/22 03:20:51;;;;;;;6.87;5.80;;;;;;;10.35;51.56;100243.84;5013338;28;20642;-63
2023/04/22 03:23:19;;;;;;;7.47;5.77;;;;;;;10.34;51.14;100246.41;5012732;28;20235;-63
2023/04/22 03:25:48;;;;;;;8.73;5.57;;;;;;;10.33;51.36;100242.13;5012639;28;20207;-64
2023/04/22 03:28:16;;;;;;;8.40;5.47;;;;;;;10.31;52.06;100254.16;5012522;28;20203;-64
2023/04/22 03:30:44;;;;;;;10.07;6.10;;;;;;;10.31;51.72;100257.63;5011664;28;20208;-64
2023/04/22 03:33:12;;;;;;;9.67;5.60;;;;;;;10.30;51.67;100255.03;5006906;28;20261;-63
2023/04/22 03:35:40;;;;;;;9.27;5.90;;;;;;;10.31;51.73;100256.72;5013439;28;20645;-63
2023/04/22 03:38:08;;;;;;;10.53;5.67;;;;;;;10.31;51.92;100259.31;5013786;28;20207;-65
2023/04/22 03:40:35;;;;;;;7.83;5.70;;;;;;;10.42;51.74;100254.06;5013674;28;20208;-63
2023/04/22 03:43:05;;;;;;;7.87;5.27;;;;;;;10.47;51.87;100263.50;5011687;28;20203;-64
2023/04/22 03:45:33;;;;;;;6.13;4.53;;;;;;;10.51;51.37;100259.19;5012655;28;20242;-64
2023/04/22 03:48:01;;;;;;;9.70;5.13;;;;;;;10.54;52.07;100259.16;5008484;28;20670;-65
2023/04/22 03:50:29;;;;;;;7.83;5.13;;;;;;;10.56;51.41;100263.41;5011661;28;20631;-65
2023/04/22 03:52:57;;;;;;;8.73;5.40;;;;;;;10.59;51.34;100258.22;5012505;28;20231;-63
2023/04/22 03:55:25;;;;;;;9.03;5.60;;;;;;;10.68;51.62;100266.75;5013381;28;20273;-67
2023/04/22 03:57:53;;;;;;;6.43;4.97;;;;;;;10.63;50.81;100265.06;5013211;28;20211;-64
2023/04/22 04:00:22;;;;;;;10.80;5.27;;;;;;;10.68;51.87;100265.06;5012908;28;20788;-64
2023/04/22 04:02:50;;;;;;;8.80;5.67;;;;;;;10.77;50.92;100271.84;5012344;28;20253;-63
2023/04/22 04:05:18;;;;;;;9.33;4.97;;;;;;;10.86;51.76;100269.16;5011189;28;20218;-66
2023/04/22 04:07:46;;;;;;;7.93;4.90;;;;;;;10.97;51.05;100267.38;5012018;28;20212;-62
2023/04/22 04:10:14;;;;;;;10.80;5.20;;;;;;;11.04;50.83;100274.16;5001340;28;20667;-63
2023/04/22 04:12:42;;;;;;;12.67;5.20;;;;;;;11.16;50.48;100269.72;5013271;28;20655;-62
2023/04/22 04:15:10;;;;;;;9.63;5.00;;;;;;;11.29;50.91;100279.06;5013152;28;20653;-62
2023/04/22 04:17:39;;;;;;;10.10;5.70;;;;;;;11.37;50.23;100275.53;5011960;28;20203;-64
2023/04/22 04:20:08;;;;;;;7.63;5.07;;;;;;;11.48;50.20;100272.81;5007528;28;20595;-65
2023/04/22 04:22:36;;;;;;;10.63;5.67;;;;;;;11.59;49.98;100272.69;5011982;28;20215;-63
2023/04/22 04:25:05;;;;;;;11.80;5.43;;;;;;;11.71;49.71;100269.09;5012194;28;20662;-63
2023/04/22 04:27:33;;;;;;;8.00;5.00;;;;;;;11.84;49.78;100275.88;5009904;28;20218;-63
2023/04/22 04:30:03;;;;;;;9.63;4.83;;;;;;;11.99;49.20;100285.97;5011725;28;20207;-63
2023/04/22 04:32:33;;;;;;;9.77;5.23;;;;;;;12.14;48.96;100286.66;5012732;28;20203;-64
2023/04/22 04:35:02;;;;;;;9.03;4.80;;;;;;;12.30;48.31;100275.25;5010994;28;20242;-64
2023/04/22 04:37:30;;;;;;;7.57;4.90;;;;;;;12.48;47.97;100277.53;5011441;28;20632;-64
2023/04/22 04:39:58;;;;;;;7.13;5.23;;;;;;;12.66;47.34;100283.28;5009931;28;20717;-64
2023/04/22 04:42:26;;;;;;;5.97;4.40;;;;;;;12.81;46.32;100275.25;5012323;28;20204;-65
2023/04/22 04:44:57;;;;;;;7.67;5.43;;;;;;;12.95;45.98;100290.53;5001878;28;20681;-64
2023/04/22 04:47:25;;;;;;;6.70;4.53;;;;;;;13.12;45.52;100288.53;5010448;28;20253;-64
2023/04/22 04:49:53;;;;;;;9.07;4.93;;;;;;;13.17;44.73;100270.31;5011847;28;20616;-64
2023/04/22 04:52:22;;;;;;;9.00;4.80;;;;;;;13.41;44.79;100285.44;5010113;28;20211;-67
2023/04/22 04:54:50;;;;;;;6.37;4.67;;;;;;;13.61;44.07;100277.25;5012412;28;20289;-65
2023/04/22 04:57:18;;;;;;;9.50;4.77;;;;;;;13.80;43.67;100277.72;5010837;28;20200;-64
2023/04/22 04:59:46;;;;;;;5.67;4.37;;;;;;;14.02;42.76;100278.97;5011083;28;20693;-67
2023/04/22 05:02:14;;;;;;;7.53;4.80;;;;;;;14.25;42.43;100280.22;5011289;28;20267;-65
2023/04/22 05:04:42;;;;;;;6.53;4.77;;;;;;;14.50;42.42;100276.16;5012434;28;20211;-64
2023/04/22 05:07:10;;;;;;;6.17;4.87;;;;;;;14.73;41.82;100279.97;5011066;28;20682;-65
2023/04/22 05:09:39;;;;;;;6.33;4.70;;;;;;;14.92;40.98;100278.59;5010520;28;20258;-65
2023/04/22 05:12:08;;;;;;;7.20;5.70;;;;;;;15.10;40.18;100281.63;5009201;28;20203;-69
2023/04/22 05:14:36;;;;;;;6.90;4.90;;;;;;;15.27;39.52;100276.81;5003153;28;20227;-65
2023/04/22 05:17:04;;;;;;;8.70;4.43;;;;;;;15.50;39.51;100276.19;5010539;28;20672;-64
2023/04/22 05:19:32;;;;;;;11.17;5.33;;;;;;;15.76;38.58;100282.41;5006504;28;20552;-65
2023/04/22 05:22:00;;;;;;;7.60;4.43;;;;;;;15.99;37.96;100279.16;5003725;28;20222;-65
2023/04/22 05:24:27;;;;;;;7.97;4.83;;;;;;;16.23;37.65;100274.94;5006505;28;20848;-64
2023/04/22 05:26:57;;;;;;;6.25;4.57;;;;;;;16.47;37.32;100276.75;5006686;28;20204;-64
2023/04/22 05:29:25;;;;;;;8.38;4.97;;;;;;;16.66;36.96;100277.00;5010565;28;20621;-68
2023/04/22 05:31:53;;;;;;;7.78;5.80;;;;;;;16.75;36.30;100276.72;5011447;28;20246;-65
2023/04/22 05:34:21;;;;;;;6.60;4.43;;;;;;;16.83;36.63;100277.34;5011695;28;20306;-67
2023/04/22 05:36:49;;;;;;;7.28;5.20;;;;;;;16.90;36.23;100281.44;5005947;28;20196;-66
2023/04/22 05:39:16;;;;;;;9.25;5.20;;;;;;;16.94;36.30;100273.50;5000093;28;20229;-66
2023/04/22 05:41:44;;;;;;;7.85;4.65;;;;;;;16.78;36.12;100281.00;5011645;28;20732;-64
2023/04/22 05:44:16;;;;;;;6.70;4.70;;;;;;;16.51;36.58;100280.13;5004972;28;20207;-63
2023/04/22 05:46:45;;;;;;;7.68;4.60;;;;;;;16.19;37.14;100272.41;5009288;28;20203;-67
2023/04/22 05:49:13;;;;;;;5.72;4.38;;;;;;;15.82;37.79;100277.03;4999811;28;20662;-64
2023/04/22 05:51:42;;;;;;;8.57;4.50;;;;;;;15.54;38.89;100277.81;5012029;28;20206;-65
2023/04/22 05:54:10;;;;;;;6.13;4.75;;;;;;;15.44;38.93;100276.34;5007480;28;20682;-65
2023/04/22 05:56:38;;;;;;;9.60;4.07;;;;;;;16.00;38.06;100276.47;4996425;28;20253;-66
2023/04/22 05:59:05;;;;;;;8.50;5.13;;;;;;;17.82;35.89;100257.34;5011122;28;20207;-64
2023/04/22 06:01:36;;;;;;;7.63;5.10;;;;;;;19.55;32.25;100262.34;5011050;28;20203;-65
2023/04/22 06:04:05;;;;;;;10.68;4.95;;;;;;;21.21;30.09;100263.94;5011150;28;20269;-65
2023/04/22 06:06:33;;;;;;;5.60;4.45;;;;;;;23.07;27.39;100254.44;5011085;28;20694;-65
2023/04/22 06:09:01;;;;;;;5.55;4.50;;;;;;;24.98;25.07;100251.06;5010122;28;20223;-67
2023/04/22 06:11:29;;;;;;;5.85;4.20;;;;;;;27.06;22.16;100248.34;5009861;28;20361;-65
2023/04/22 06:13:57;;;;;;;7.28;5.00;;;;;;;29.11;19.77;100242.28;5009964;28;20226;-66
2023/04/22 06:16:25;;;;;;;6.93;4.68;;;;;;;31.08;17.50;100247.63;5009024;28;20207;-67
2023/04/22 06:18:54;;;;;;;10.70;4.60;;;;;;;32.35;16.45;100242.44;5004688;28;20329;-67
2023/04/22 06:21:22;;;;;;;6.18;4.50;;;;;;;32.94;15.60;100239.09;5008994;28;20666;-68
2023/04/22 06:23:50;;;;;;;5.57;4.38;;;;;;;34.02;14.49;100239.38;5001276;28;20264;-65
2023/04/22 06:26:18;;;;;;;5.50;4.05;;;;;;;35.31;13.15;100246.66;5008491;28;20641;-66
2023/04/22 06:28:46;;;;;;;8.98;4.97;;;;;;;36.48;12.08;100244.84;5004914;28;20222;-65
2023/04/22 06:31:14;;;;;;;7.43;4.18;;;;;;;37.05;11.53;100230.06;5008866;28;20576;-64
2023/04/22 06:33:43;;;;;;;7.05;3.85;;;;;;;37.68;11.00;100236.66;5008868;28;20214;-62
2023/04/22 06:36:13;;;;;;;8.48;4.40;;;;;;;38.13;10.75;100237.38;4998211;28;20209;-65
2023/04/22 06:38:41;;;;;;;8.90;4.55;;;;;;;38.75;9.98;100239.34;5007377;28;20257;-67
2023/04/22 06:41:09;;;;;;;6.45;4.53;;;;;;;39.54;9.89;100235.44;5005129;28;20226;-65
2023/04/22 06:43:36;;;;;;;6.45;4.63;;;;;;;40.18;9.94;100240.44;5006343;28;20207;-64
2023/04/22 06:46:05;;;;;;;5.68;3.63;;;;;;;40.35;9.37;100237.31;5006727;28;20693;-65
2023/04/22 06:48:33;;;;;;;6.22;4.22;;;;;;;39.78;9.23;100236.81;5010319;28;20286;-66
2023/04/22 06:51:01;;;;;;;5.43;4.10;;;;;;;39.56;9.78;100239.63;5006764;28;20713;-71
2023/04/22 06:53:30;;;;;;;4.88;4.10;;;;;;;39.50;9.63;100236.91;5011037;28;20257;-63
2023/04/22 06:55:58;;;;;;;4.80;4.15;;;;;;;39.87;9.43;100240.97;5009110;28;20620;-64
2023/04/22 06:58:26;;;;;;;5.03;4.35;;;;;;;40.10;8.71;100237.88;5013438;28;20222;-64
2023/04/22 07:00:54;;;;;;;6.70;4.25;;;;;;;40.21;8.78;100244.56;5007151;28;20725;-62
2023/04/22 07:03:22;;;;;;;6.90;4.35;;;;;;;39.99;9.27;100242.06;5010850;28;20215;-64
2023/04/22 07:05:50;;;;;;;4.60;3.63;;;;;;;40.00;9.18;100235.59;5003224;28;20212;-66
2023/04/22 07:08:18;;;;;;;4.68;4.00;;;;;;;40.00;8.76;100234.78;5011189;28;20207;-65
2023/04/22 07:10:47;;;;;;;8.73;4.43;;;;;;;40.39;8.58;100243.97;5010817;28;20269;-66
2023/04/22 07:13:15;;;;;;;6.07;4.28;;;;;;;40.58;8.33;100236.91;5009874;28;20207;-64
2023/04/22 07:15:45;;;;;;;4.63;3.80;;;;;;;41.19;8.36;100242.84;5008628;28;20276;-64
2023/04/22 07:18:13;;;;;;;4.65;4.20;;;;;;;41.19;8.67;100237.44;5006884;28;20199;-63
2023/04/22 07:20:40;;;;;;;8.23;4.50;;;;;;;40.74;8.31;100236.50;5006286;28;20558;-63
2023/04/22 07:23:08;;;;;;;5.13;4.10;;;;;;;40.51;8.69;100235.03;5006710;28;20709;-64
2023/04/22 07:25:36;;;;;;;6.22;4.28;;;;;;;40.00;9.12;100238.31;5014358;28;20219;-65
2023/04/22 07:28:05;;;;;;;6.38;4.03;;;;;;;40.18;9.01;100236.91;5014254;28;20542;-66
2023/04/22 07:30:33;;;;;;;9.20;4.10;;;;;;;40.99;8.40;100236.69;5013195;28;20716;-66
2023/04/22 07:33:01;;;;;;;8.02;3.80;;;;;;;41.90;7.94;100236.50;5012200;28;20199;-67
2023/04/22 07:35:30;;;;;;;3.72;3.42;;;;;;;43.02;7.54;100231.19;5007609;28;20202;-66
2023/04/22 07:37:58;;;;;;;9.23;4.00;;;;;;;43.93;6.85;100226.69;5014128;28;20241;-66
2023/04/22 07:40:26;;;;;;;6.03;3.78;;;;;;;44.76;6.54;100230.34;5012403;28;20654;-66
2023/04/22 07:42:54;;;;;;;9.27;3.65;;;;;;;45.33;6.44;100226.91;5011548;28;20202;-64
2023/04/22 07:45:23;;;;;;;3.95;3.33;;;;;;;45.48;6.00;100230.81;5008920;28;20210;-63
2023/04/22 07:47:51;;;;;;;3.75;3.20;;;;;;;44.90;6.35;100226.31;5013123;28;20241;-66
2023/04/22 07:50:19;;;;;;;3.80;3.40;;;;;;;44.64;6.60;100224.91;5012618;28;20362;-64
2023/04/22 07:52:47;;;;;;;8.43;3.35;;;;;;;44.69;6.48;100225.03;5007626;28;20273;-64
2023/04/22 07:55:15;;;;;;;3.88;3.33;;;;;;;43.96;6.18;100218.06;5013480;28;20198;-66
2023/04/22 07:57:43;;;;;;;2.85;2.65;;;;;;;42.85;6.80;100224.69;5008845;28;20304;-67
2023/04/22 08:00:12;;;;;;;4.72;3.58;;;;;;;42.45;6.87;100219.63;5009566;28;20618;-63
2023/04/22 08:02:42;;;;;;;5.32;3.53;;;;;;;42.09;7.52;100226.59;5010544;28;20211;-66
2023/04/22 08:05:11;;;;;;;4.55;3.25;;;;;;;42.52;7.13;100222.28;5009195;28;20301;-63
2023/04/22 08:07:39;;;;;;;5.57;3.47;;;;;;;43.16;6.82;100215.63;5005801;28;20689;-63
2023/04/22 08:10:08;;;;;;;3.50;3.20;;;;;;;43.64;6.10;100225.66;5010818;28;20214;-64
2023/04/22 08:12:36;;;;;;;4.55;3.08;;;;;;;44.01;6.10;100223.66;5012122;28;20204;-63
2023/04/22 08:15:05;;;;;;;3.88;2.83;;;;;;;44.63;5.86;100220.50;5012942;28;20239;-63
2023/04/22 08:17:34;;;;;;;4.07;3.05;;;;;;;45.21;5.54;100221.53;5005294;28;20238;-63
2023/04/22 08:20:04;;;;;;;5.35;2.70;;;;;;;45.52;5.09;100218.34;5009360;28;20238;-63
2023/04/22 08:22:35;;;;;;;3.70;2.92;;;;;;;45.72;5.40;100214.34;5009594;28;20630;-64
2023/04/22 08:25:03;;;;;;;5.68;3.47;;;;;;;45.74;5.40;100213.03;5012584;28;20238;-65
2023/04/22 08:27:31;;;;;;;5.90;3.17;;;;;;;45.61;5.34;100216.06;5012896;28;20242;-62
2023/04/22 08:29:59;;;;;;;4.38;2.72;;;;;;;45.43;4.79;100218.94;5009300;28;20214;-62
2023/04/22 08:32:27;;;;;;;3.85;2.85;;;;;;;45.10;5.40;100219.66;5009939;28;20207;-62
2023/04/22 08:34:55;;;;;;;2.28;2.08;;;;;;;44.99;5.52;100213.97;5011104;28;20211;-65
2023/04/22 08:37:32;;;;;;;4.88;3.83;;;;;;;44.90;5.47;100215.44;5002702;28;20264;-61
2023/04/22 08:40:00;;;;;;;3.28;2.90;;;;;;;45.00;5.41;100212.06;5010453;28;20206;-62
2023/04/22 08:42:29;;;;;;;4.47;2.88;;;;;;;44.39;5.71;100214.25;5010145;28;20225;-64
2023/04/22 08:44:57;;;;;;;5.78;3.42;;;;;;;44.48;5.64;100212.81;5008549;28;20210;-62
2023/04/22 08:47:25;;;;;;;2.30;2.15;;;;;;;44.28;5.36;100210.47;5003840;28;20681;-63
2023/04/22 08:49:55;;;;;;;2.50;2.28;;;;;;;44.17;5.48;100213.97;5005099;28;20206;-63
2023/04/22 08:52:23;;;;;;;8.05;4.60;;;;;;;44.56;5.83;100209.78;5007616;28;20226;-65
2023/04/22 08:54:52;;;;;;;7.97;4.28;;;;;;;44.22;5.77;100203.22;5011781;28;20202;-61
2023/04/22 08:57:21;;;;;;;7.35;3.80;;;;;;;44.14;5.89;100200.88;5009669;28;20230;-62
2023/04/22 08:59:50;;;;;;;5.93;3.67;;;;;;;44.50;5.37;100202.56;5011023;28;20208;-62
2023/04/22 09:02:20;;;;;;;5.03;2.58;;;;;;;44.68;5.24;100195.38;5011329;28;20210;-62
2023/04/22 09:04:50;;;;;;;3.22;2.70;;;;;;;44.52;5.47;100205.88;5009280;28;20301;-62
2023/04/22 09:07:23;;;;;;;3.72;2.50;;;;;;;44.37;6.00;100200.06;5011753;28;20215;-64
2023/04/22 09:09:52;;;;;;;2.63;2.22;;;;;;;44.08;5.66;100190.97;5011635;28;20677;-62
2023/04/22 09:12:20;;;;;;;4.22;3.00;;;;;;;43.46;5.70;100193.94;5010585;28;20202;-60
2023/04/22 09:14:48;;;;;;;3.70;2.75;;;;;;;41.62;6.74;100192.75;5010522;28;20229;-61
2023/04/22 09:17:17;;;;;;;2.75;2.50;;;;;;;41.52;7.08;100190.50;5011623;28;20605;-64
2023/04/22 09:19:45;;;;;;;4.82;2.53;;;;;;;41.62;7.06;100196.28;5011448;28;20260;-63
2023/04/22 09:22:15;;;;;;;4.55;2.50;;;;;;;42.37;7.40;100190.94;5009921;28;20265;-62
2023/04/22 09:24:48;;;;;;;2.42;2.22;;;;;;;42.80;6.73;100184.72;5011475;28;20261;-61
2023/04/22 09:27:18;;;;;;;4.30;2.40;;;;;;;40.93;6.86;100194.25;5008474;28;20224;-62
2023/04/22 09:29:48;;;;;;;3.08;2.63;;;;;;;40.29;7.45;100191.22;5009888;28;20222;-62
2023/04/22 09:32:16;;;;;;;2.63;2.28;;;;;;;39.81;7.66;100180.56;5010158;28;20199;-61
2023/04/22 09:34:50;;;;;;;5.55;2.20;;;;;;;39.77;7.76;100179.31;5008809;28;20616;-61
2023/04/22 09:37:22;;;;;;;3.65;1.92;;;;;;;39.18;7.83;100179.94;5011376;28;20566;-61
2023/04/22 09:39:50;;;;;;;2.60;2.40;;;;;;;38.43;8.23;100171.59;5010187;28;20273;-62
2023/04/22 09:42:21;;;;;;;4.50;2.78;;;;;;;37.88;8.72;100170.47;5009324;28;20576;-62
2023/04/22 09:44:51;;;;;;;3.60;2.40;;;;;;;37.43;9.01;100179.72;5009623;28;20199;-60
2023/04/22 09:47:20;;;;;;;3.00;2.40;;;;;;;37.78;9.22;100164.59;5006711;28;20623;-63
2023/04/22 09:49:49;;;;;;;3.10;2.50;;;;;;;38.37;8.83;100167.00;5011747;28;20199;-61
2023/04/22 09:52:25;;;;;;;3.92;2.40;;;;;;;39.75;8.58;100159.81;5011520;28;20214;-65
2023/04/22 09:54:54;;;;;;;4.93;2.97;;;;;;;40.57;7.80;100157.75;5006925;28;20249;-61
2023/04/22 09:57:23;;;;;;;2.75;2.50;;;;;;;39.78;7.50;100156.69;5007767;28;20210;-58
2023/04/22 09:59:51;;;;;;;5.45;2.55;;;;;;;39.35;7.77;100159.69;5011178;28;20207;-57
2023/04/22 10:02:28;;;;;;;2.22;2.03;;;;;;;38.11;7.91;100155.97;5010405;28;20655;-57
2023/04/22 10:04:57;;;;;;;2.97;2.20;;;;;;;37.07;8.83;100153.59;5011359;28;20673;-57
2023/04/22 10:07:30;;;;;;;4.20;2.13;;;;;;;36.96;9.19;100162.97;5007987;28;20222;-57
2023/04/22 10:09:58;;;;;;;2.50;2.30;;;;;;;37.68;9.25;100140.69;5010059;28;20207;-60
2023/04/22 10:12:28;;;;;;;3.70;1.85;;;;;;;38.07;9.14;100149.31;5006689;28;20213;-58
2023/04/22 10:15:03;;;;;;;4.07;2.80;;;;;;;37.91;9.19;100156.66;5010214;28;20715;-59
2023/04/22 10:17:33;;;;;;;4.03;2.40;;;;;;;38.24;9.19;100139.13;5008557;28;20203;-57
2023/04/22 10:20:06;;;;;;;3.63;2.42;;;;;;;38.73;9.07;100138.22;5007884;28;20257;-62
2023/04/22 10:22:35;;;;;;;3.30;2.28;;;;;;;38.57;9.37;100134.81;5004043;28;20207;-57
2023/04/22 10:25:03;;;;;;;5.00;2.75;;;;;;;38.93;8.96;100136.50;5007966;28;20273;-57
2023/04/22 10:27:32;;;;;;;4.10;2.53;;;;;;;39.13;7.97;100141.94;5014096;28;20268;-60
2023/04/22 10:30:00;;;;;;;4.68;1.90;;;;;;;38.70;8.79;100134.03;5010518;28;20356;-60
2023/04/22 10:32:29;;;;;;;5.72;2.60;;;;;;;37.29;9.68;100134.84;5012106;28;20222;-59
2023/04/22 10:35:11;;;;;;;4.05;2.00;;;;;;;35.39;10.48;100131.44;5015216;28;20655;-62
2023/04/22 10:37:46;;;;;;;2.55;2.03;;;;;;;33.89;11.54;100140.09;5011976;28;20211;-57
2023/04/22 10:40:16;;;;;;;3.10;1.90;;;;;;;32.01;12.69;100144.50;5010388;28;20234;-57
2023/04/22 10:42:51;;;;;;;2.28;2.08;;;;;;;31.11;13.49;100147.97;5013850;28;20199;-57
2023/04/22 10:45:23;;;;;;;4.40;2.38;;;;;;;30.32;14.50;100144.72;5014715;28;20210;-59
2023/04/22 10:47:51;;;;;;;4.72;2.45;;;;;;;29.16;15.43;100141.88;5014617;28;20268;-58
2023/04/22 10:50:22;;;;;;;3.42;2.00;;;;;;;28.65;15.67;100145.44;5011763;28;20733;-58
2023/04/22 10:52:52;;;;;;;6.78;2.47;;;;;;;28.16;16.76;100146.88;5011207;28;20598;-63
2023/04/22 10:55:21;;;;;;;2.70;2.47;;;;;;;27.96;16.86;100131.81;5012925;28;20211;-59
2023/04/22 10:57:52;;;;;;;4.18;2.20;;;;;;;27.12;17.34;100128.88;5012032;28;20231;-59
2023/04/22 11:00:32;;;;;;;3.88;2.22;;;;;;;26.86;17.57;100131.72;5007167;28;20241;-58
2023/04/22 11:03:26;;;;;;;2.88;1.80;;;;;;;26.84;17.71;100125.69;5010394;28;20214;-60
2023/04/22 11:06:13;;;;;;;2.65;1.73;;;;;;;26.86;17.35;100129.09;5012990;28;20202;-58
2023/04/22 11:08:45;;;;;;;3.92;2.10;;;;;;;26.87;17.21;100129.91;5012864;28;20212;-58
2023/04/22 11:11:13;;;;;;;6.53;2.15;;;;;;;26.85;17.11;100130.06;5012923;28;20550;-60
2023/04/22 11:13:42;;;;;;;1.95;1.80;;;;;;;26.97;17.26;100122.97;5014369;28;20269;-58
2023/04/22 11:16:11;;;;;;;2.80;1.73;;;;;;;27.17;17.71;100124.91;5010250;28;20210;-60
2023/04/22 11:18:39;;;;;;;2.35;1.92;;;;;;;27.49;17.61;100126.75;5007120;28;20211;-58
2023/04/22 11:21:08;;;;;;;5.93;2.10;;;;;;;27.37;17.99;100115.38;5010930;28;20207;-62
2023/04/22 11:23:36;;;;;;;2.50;2.28;;;;;;;27.26;18.17;100117.19;5011590;28;20725;-58
2023/04/22 11:26:05;;;;;;;5.63;2.50;;;;;;;27.44;18.57;100111.25;5003753;28;20202;-59
2023/04/22 11:28:33;;;;;;;5.50;2.50;;;;;;;27.48;18.32;100108.38;5014029;28;20219;-59
2023/04/22 11:31:05;;;;;;;7.82;2.38;;;;;;;27.36;17.52;100104.91;5012873;28;20718;-58
2023/04/22 11:33:34;;;;;;;2.22;2.00;;;;;;;26.93;17.11;100117.06;5014098;28;20725;-59